Moody, Missouri
Current Conditions -  °F | °C
As of 4:53 AM on Monday 20 Oct 2014 (Local Time) from KUNO Reporting Station
Broken Clouds Broken Clouds  
Wind Chill: 11°   Ceiling: 8500
Heat Index: 11°   Visibility: 10mi
Dew Point:   Wind: 5mph
Humidity: 83%   Direction: 250°WSW
Pressure: 30.04"   Gusts: NA
Location:  36.53°N, 91.99°W
Report Text: KUNO 200953Z AUTO 25004KT 10SM FEW070 BKN085 BKN110 11/08 A3004 RMK AO2 RAB39E53 SLP169 P0000 T01110083
Loading
Personal Weather Stations






























Interactive Weather Map
Tropical Storm Tracking
New forecast layout! Learn more

10-Day Weather Forecast

Advertisements
Track Severe Weather on mobile